Time;durP1;ratioP1;P1;durP2;ratioP2;P2;SDS_P1;SDS_P2;PMS_P1;PMS_P2;Temp;Humidity;BMP_temperature;BMP_pressure;BME280_temperature;BME280_humidity;BME280_pressure;Samples;Min_cycle;Max_cycle;Signal;HPM_P1;HPM_P2
2023/01/12 00:01:30;;;;;;;11.23;2.37;;;8.70;99.90;;;;;;5056316;28;20236;-48
2023/01/12 00:03:56;;;;;;;4.93;1.40;;;8.70;99.90;;;;;;5073859;28;20176;-49
2023/01/12 00:06:22;;;;;;;7.90;1.90;;;8.70;99.90;;;;;;5073785;28;20549;-48
2023/01/12 00:08:49;;;;;;;7.30;1.70;;;8.70;99.90;;;;;;5073755;28;20184;-49
2023/01/12 00:11:16;;;;;;;7.50;1.57;;;8.70;99.90;;;;;;5073749;28;20174;-48
2023/01/12 00:13:42;;;;;;;11.60;2.10;;;8.70;99.90;;;;;;5073588;28;20216;-50
2023/01/12 00:16:36;;;;;;;7.97;1.77;;;8.60;99.90;;;;;;5073527;28;20194;-49
2023/01/12 00:19:20;;;;;;;6.40;1.63;;;8.60;99.90;;;;;;5073917;28;20175;-49
2023/01/12 00:21:58;;;;;;;8.50;1.63;;;8.60;99.90;;;;;;5073485;28;20192;-47
2023/01/12 00:24:28;;;;;;;7.67;2.27;;;8.50;99.90;;;;;;5057577;28;20169;-48
2023/01/12 00:26:55;;;;;;;9.53;2.03;;;8.50;99.90;;;;;;5055501;28;20682;-48
2023/01/12 00:29:21;;;;;;;9.47;2.03;;;8.60;99.90;;;;;;5073712;28;20172;-48
2023/01/12 00:31:47;;;;;;;5.03;1.43;;;8.60;99.90;;;;;;5074023;28;20199;-48
2023/01/12 00:34:13;;;;;;;6.23;1.93;;;8.60;99.90;;;;;;5073304;28;20754;-47
2023/01/12 00:36:39;;;;;;;9.13;1.67;;;8.60;99.90;;;;;;5073423;28;20230;-48
2023/01/12 00:39:05;;;;;;;14.03;2.10;;;8.60;99.90;;;;;;5073349;28;20175;-49
2023/01/12 00:46:59;;;;;;;8.90;1.60;;;8.60;99.90;;;;;;5073342;28;20671;-49
2023/01/12 00:49:25;;;;;;;6.73;1.97;;;8.60;99.90;;;;;;5073446;28;20184;-48
2023/01/12 00:51:50;;;;;;;8.10;2.10;;;8.60;99.90;;;;;;5073156;28;20663;-48
2023/01/12 00:54:16;;;;;;;1.77;0.97;;;8.60;99.90;;;;;;5073051;28;20203;-49
2023/01/12 00:56:41;;;;;;;9.17;2.23;;;8.60;99.90;;;;;;5055025;28;20580;-47
2023/01/12 00:59:07;;;;;;;8.27;1.60;;;8.60;99.90;;;;;;5073083;28;20180;-49
2023/01/12 01:01:33;;;;;;;8.30;1.83;;;8.60;99.90;;;;;;5073275;28;20655;-49
2023/01/12 01:03:59;;;;;;;11.40;2.03;;;8.60;99.90;;;;;;5073145;28;20183;-49
2023/01/12 01:06:25;;;;;;;14.20;2.40;;;8.60;99.90;;;;;;5073267;28;20176;-48
2023/01/12 01:08:50;;;;;;;7.87;1.97;;;8.60;99.90;;;;;;5055434;28;20550;-49
2023/01/12 01:11:16;;;;;;;10.27;2.07;;;8.60;99.90;;;;;;5073254;28;20186;-50
2023/01/12 01:13:43;;;;;;;9.73;1.90;;;8.70;99.90;;;;;;5072985;28;20338;-49
2023/01/12 01:16:11;;;;;;;6.00;1.30;;;8.60;99.90;;;;;;5072875;28;20187;-49
2023/01/12 01:18:36;;;;;;;8.70;1.83;;;8.70;99.90;;;;;;5073072;28;20225;-50
2023/01/12 01:21:03;;;;;;;9.10;1.63;;;8.60;99.90;;;;;;5073098;28;20729;-49
2023/01/12 01:23:33;;;;;;;9.10;1.80;;;8.70;99.90;;;;;;5073164;28;20172;-44
2023/01/12 01:26:07;;;;;;;9.67;2.03;;;8.60;99.90;;;;;;5073191;28;20196;-47
2023/01/12 01:28:34;;;;;;;8.13;2.13;;;8.70;99.90;;;;;;5072869;28;20197;-47
2023/01/12 01:31:10;;;;;;;10.40;2.23;;;8.70;99.90;;;;;;5072803;28;20172;-46
2023/01/12 01:33:36;;;;;;;5.00;1.70;;;8.70;99.90;;;;;;5054742;28;20205;-45
2023/01/12 01:36:02;;;;;;;16.07;1.93;;;8.70;99.90;;;;;;5072815;28;20174;-45
2023/01/12 01:38:28;;;;;;;11.53;1.97;;;8.60;99.90;;;;;;5072835;28;20176;-46
2023/01/12 01:40:54;;;;;;;12.50;2.47;;;8.70;99.90;;;;;;5073338;28;20180;-47
2023/01/12 01:43:22;;;;;;;9.57;2.10;;;8.70;99.90;;;;;;5072961;28;20204;-47
2023/01/12 01:46:02;;;;;;;13.40;2.60;;;8.70;99.90;;;;;;5073159;28;20574;-46
2023/01/12 01:48:31;;;;;;;10.67;2.10;;;8.70;99.90;;;;;;5072990;28;20171;-46
2023/01/12 01:51:01;;;;;;;11.20;1.73;;;8.70;99.90;;;;;;5054780;28;20183;-47
2023/01/12 01:53:31;;;;;;;16.73;2.67;;;8.70;99.90;;;;;;5076578;28;20677;-44
2023/01/12 01:56:02;;;;;;;11.30;1.93;;;8.80;99.90;;;;;;5076259;28;20229;-45
2023/01/12 01:58:34;;;;;;;10.63;2.03;;;8.80;99.90;;;;;;5076348;28;20168;-46
2023/01/12 02:01:00;;;;;;;4.40;1.33;;;8.80;99.90;;;;;;5058939;28;20164;-46
2023/01/12 02:03:27;;;;;;;12.80;2.13;;;8.80;99.90;;;;;;5076497;28;20329;-44
2023/01/12 02:05:55;;;;;;;15.90;3.13;;;8.80;99.90;;;;;;5076024;28;20175;-45
2023/01/12 02:08:39;;;;;;;10.50;2.20;;;8.80;99.90;;;;;;5076008;28;20198;-43
2023/01/12 02:16:19;;;;;;;8.47;1.57;;;8.90;99.90;;;;;;5076182;28;20627;-46
2023/01/12 02:16:41;;;;;;;6.00;1.63;;;8.90;99.90;;;;;;5076042;28;20176;-45
2023/01/12 02:19:38;;;;;;;14.03;2.50;;;8.90;99.90;;;;;;5076171;28;20177;-45
2023/01/12 02:22:40;;;;;;;7.80;1.50;;;8.90;99.90;;;;;;5076022;28;20204;-47
2023/01/12 02:25:24;;;;;;;12.07;2.20;;;9.00;99.90;;;;;;5075806;28;20217;-46
2023/01/12 02:28:08;;;;;;;9.63;2.43;;;8.90;99.90;;;;;;5075982;28;20654;-48
2023/01/12 02:31:01;;;;;;;14.27;2.17;;;9.00;99.90;;;;;;5075824;28;20174;-46
2023/01/12 02:33:42;;;;;;;10.47;2.27;;;8.90;99.90;;;;;;5076054;28;20203;-48
2023/01/12 02:36:36;;;;;;;9.70;2.03;;;9.00;99.90;;;;;;5075822;28;20168;-45
2023/01/12 02:39:17;;;;;;;7.77;1.67;;;8.90;99.90;;;;;;5075473;28;20176;-45
2023/01/12 02:45:20;;;;;;;8.70;1.97;;;8.90;99.90;;;;;;5075684;28;20197;-41
2023/01/12 02:48:05;;;;;;;4.17;0.83;;;8.80;99.90;;;;;;5075539;28;20595;-46
2023/01/12 02:51:00;;;;;;;8.60;2.17;;;8.80;99.90;;;;;;5075426;28;20599;-43
2023/01/12 02:53:43;;;;;;;10.93;1.43;;;8.80;99.90;;;;;;5075435;28;20198;-45
2023/01/12 02:56:12;;;;;;;9.63;2.27;;;8.70;99.90;;;;;;5075501;28;20174;-43
2023/01/12 02:58:43;;;;;;;6.03;1.33;;;8.70;99.90;;;;;;5075093;28;20180;-46
2023/01/12 03:01:10;;;;;;;9.60;2.07;;;8.70;99.90;;;;;;5074928;28;20536;-45
2023/01/12 03:03:38;;;;;;;9.80;2.40;;;8.70;99.90;;;;;;5074309;28;20185;-46
2023/01/12 03:06:06;;;;;;;11.87;2.40;;;8.60;99.90;;;;;;5075208;28;20201;-47
2023/01/12 03:08:33;;;;;;;5.47;1.60;;;8.70;99.90;;;;;;5075227;28;20204;-45
2023/01/12 03:11:17;;;;;;;9.43;1.87;;;8.70;99.90;;;;;;5074824;28;20183;-45
2023/01/12 03:13:49;;;;;;;7.17;1.30;;;8.60;99.90;;;;;;5074791;28;20694;-46
2023/01/12 03:16:19;;;;;;;12.27;1.80;;;8.70;99.90;;;;;;5074750;28;20218;-46
2023/01/12 03:19:16;;;;;;;9.50;1.67;;;8.70;99.90;;;;;;5075123;28;20229;-46
2023/01/12 03:21:51;;;;;;;11.00;1.30;;;8.70;99.90;;;;;;5073898;28;20207;-45
2023/01/12 03:24:24;;;;;;;3.37;1.50;;;8.70;99.90;;;;;;5075426;28;20291;-44
2023/01/12 03:26:53;;;;;;;3.93;1.30;;;8.70;99.90;;;;;;5074925;28;20172;-46
2023/01/12 03:29:36;;;;;;;6.47;1.80;;;8.70;99.90;;;;;;5074645;28;20238;-47
2023/01/12 03:32:02;;;;;;;9.73;1.77;;;8.70;99.90;;;;;;5074775;28;20246;-47
2023/01/12 03:34:28;;;;;;;14.30;2.57;;;8.70;99.90;;;;;;5074359;28;20211;-44
2023/01/12 03:37:21;;;;;;;9.07;1.70;;;8.70;99.90;;;;;;5074327;28;20266;-46
2023/01/12 03:40:10;;;;;;;9.87;1.87;;;8.70;99.90;;;;;;5074385;28;20164;-47
2023/01/12 03:42:45;;;;;;;10.27;2.30;;;8.70;99.90;;;;;;5074156;28;20199;-46
2023/01/12 03:45:23;;;;;;;7.13;1.53;;;8.80;99.90;;;;;;5074589;28;20284;-45
2023/01/12 03:47:57;;;;;;;4.80;1.23;;;8.80;99.90;;;;;;5074460;28;20180;-46
2023/01/12 03:50:27;;;;;;;5.03;1.30;;;8.80;99.90;;;;;;5074442;28;20178;-46
2023/01/12 03:52:55;;;;;;;6.30;1.57;;;8.80;99.90;;;;;;5073986;28;20551;-46
2023/01/12 03:55:22;;;;;;;13.00;1.50;;;8.80;99.90;;;;;;5074093;28;20180;-46
2023/01/12 03:57:52;;;;;;;5.60;1.07;;;8.80;99.90;;;;;;5074490;28;20240;-46
2023/01/12 04:00:20;;;;;;;5.73;1.40;;;8.80;99.90;;;;;;5074350;28;20190;-46
2023/01/12 04:02:45;;;;;;;4.67;0.93;;;8.80;99.90;;;;;;5074369;28;20686;-47
2023/01/12 04:05:13;;;;;;;6.73;1.33;;;8.80;99.90;;;;;;5074029;28;20320;-46
2023/01/12 04:07:39;;;;;;;7.43;1.40;;;8.80;99.90;;;;;;5074037;28;20185;-45
2023/01/12 04:10:05;;;;;;;5.90;1.40;;;8.80;99.90;;;;;;5074025;28;20185;-45
2023/01/12 04:12:30;;;;;;;6.80;1.60;;;8.80;99.90;;;;;;5055998;28;20231;-44
2023/01/12 04:14:56;;;;;;;4.50;1.40;;;8.80;99.90;;;;;;5073681;28;20242;-49
2023/01/12 04:17:24;;;;;;;5.87;1.07;;;8.80;99.90;;;;;;5076217;28;20176;-47
2023/01/12 04:19:50;;;;;;;3.57;1.23;;;8.80;99.90;;;;;;5078018;28;20191;-48
2023/01/12 04:25:01;;;;;;;7.03;1.10;;;8.80;99.90;;;;;;5074247;28;20184;-48
2023/01/12 04:27:27;;;;;;;3.77;1.27;;;8.80;99.90;;;;;;5073745;28;20179;-47
2023/01/12 04:29:53;;;;;;;5.43;1.20;;;8.80;99.90;;;;;;5073797;28;20655;-49
2023/01/12 04:32:19;;;;;;;8.57;2.03;;;8.80;99.90;;;;;;5073419;28;20667;-49
2023/01/12 04:34:45;;;;;;;6.70;1.73;;;8.70;99.90;;;;;;5073655;28;20203;-45
2023/01/12 04:37:11;;;;;;;2.23;0.93;;;8.70;99.90;;;;;;5073728;28;20193;-48
2023/01/12 04:39:37;;;;;;;8.80;2.10;;;8.70;99.90;;;;;;5073706;28;20652;-48
2023/01/12 04:42:03;;;;;;;3.77;0.87;;;8.70;99.90;;;;;;5073665;28;20792;-47
2023/01/12 04:44:28;;;;;;;9.47;1.73;;;8.70;99.90;;;;;;5073289;28;20647;-49
2023/01/12 04:46:54;;;;;;;8.67;1.87;;;8.70;99.90;;;;;;5073604;28;20191;-47
2023/01/12 04:49:19;;;;;;;9.77;1.60;;;8.70;99.90;;;;;;5073331;28;20191;-47
2023/01/12 04:51:45;;;;;;;3.07;1.10;;;8.70;99.90;;;;;;5073233;28;20207;-46
2023/01/12 04:54:11;;;;;;;3.87;0.87;;;8.70;99.90;;;;;;5073184;28;20204;-46
2023/01/12 04:56:36;;;;;;;2.03;0.90;;;8.70;99.90;;;;;;5073247;28;20258;-47
2023/01/12 04:59:02;;;;;;;5.77;0.80;;;8.70;99.90;;;;;;5073331;28;20180;-48
2023/01/12 05:01:28;;;;;;;9.20;2.03;;;8.70;99.90;;;;;;5073351;28;20621;-47
2023/01/12 05:03:59;;;;;;;4.40;1.30;;;8.70;99.90;;;;;;5073395;28;20189;-48
2023/01/12 05:06:25;;;;;;;6.47;1.27;;;8.70;99.90;;;;;;5073348;28;20267;-47
2023/01/12 05:11:35;;;;;;;3.53;1.17;;;8.70;99.90;;;;;;5073395;28;20719;-47
2023/01/12 05:14:01;;;;;;;2.77;1.00;;;8.60;99.90;;;;;;5073250;28;20203;-48
2023/01/12 05:16:27;;;;;;;1.50;0.60;;;8.60;99.90;;;;;;5072947;28;20223;-48
2023/01/12 05:18:53;;;;;;;4.20;1.30;;;8.60;99.90;;;;;;5073027;28;20181;-47
2023/01/12 05:21:20;;;;;;;1.97;0.80;;;8.60;99.90;;;;;;5073184;28;20239;-48
2023/01/12 05:23:47;;;;;;;4.60;1.03;;;8.60;99.90;;;;;;5073243;28;20187;-48
2023/01/12 05:26:13;;;;;;;2.60;0.93;;;8.60;99.90;;;;;;5073837;28;20180;-48
2023/01/12 05:28:39;;;;;;;1.43;0.70;;;8.60;99.90;;;;;;5076935;28;20238;-48
2023/01/12 05:31:09;;;;;;;1.27;0.53;;;8.60;99.90;;;;;;5076870;28;20267;-48
2023/01/12 05:33:36;;;;;;;4.23;0.80;;;8.60;99.90;;;;;;5076711;28;20213;-47
2023/01/12 05:36:06;;;;;;;5.40;1.40;;;8.60;99.90;;;;;;5076686;28;20232;-47
2023/01/12 05:38:32;;;;;;;3.30;0.97;;;8.60;99.90;;;;;;5076671;28;20179;-47
2023/01/12 05:40:59;;;;;;;4.77;0.70;;;8.60;99.90;;;;;;5076859;28;20191;-48
2023/01/12 05:46:09;;;;;;;2.13;0.63;;;8.60;99.90;;;;;;5076606;28;20174;-48
2023/01/12 05:48:34;;;;;;;3.07;1.00;;;8.60;99.90;;;;;;5076502;28;20183;-47
2023/01/12 05:51:05;;;;;;;3.03;1.00;;;8.60;99.90;;;;;;5076601;28;20184;-49
2023/01/12 05:53:31;;;;;;;5.13;1.30;;;8.60;99.90;;;;;;5076909;28;20203;-47
2023/01/12 05:55:57;;;;;;;2.63;0.60;;;8.60;99.90;;;;;;5076620;28;20191;-48
2023/01/12 05:58:24;;;;;;;5.63;1.13;;;8.60;99.90;;;;;;5076322;28;20179;-48
2023/01/12 06:00:50;;;;;;;2.90;1.00;;;8.60;99.90;;;;;;5076267;28;20545;-48
2023/01/12 06:03:15;;;;;;;3.80;1.00;;;8.60;99.90;;;;;;5076138;28;20212;-47
2023/01/12 06:05:41;;;;;;;2.67;0.80;;;8.60;99.90;;;;;;5076444;28;20180;-47
2023/01/12 06:08:06;;;;;;;7.23;1.10;;;8.60;99.90;;;;;;5076162;28;20599;-49
2023/01/12 06:10:33;;;;;;;2.43;1.00;;;8.60;99.90;;;;;;5076355;28;20647;-48
2023/01/12 06:15:43;;;;;;;2.40;0.70;;;8.60;99.90;;;;;;5076304;28;20255;-49
2023/01/12 06:18:09;;;;;;;1.97;0.90;;;8.70;99.90;;;;;;5075970;28;20179;-48
2023/01/12 06:20:34;;;;;;;2.93;0.83;;;8.60;99.90;;;;;;5076144;28;20180;-48
2023/01/12 06:23:01;;;;;;;6.07;0.97;;;8.60;99.90;;;;;;5076170;28;20235;-48
2023/01/12 06:25:28;;;;;;;1.70;0.70;;;8.70;99.90;;;;;;5076259;28;20188;-48
2023/01/12 06:27:54;;;;;;;7.33;1.43;;;8.70;99.90;;;;;;5075860;28;20178;-48
2023/01/12 06:30:20;;;;;;;2.30;0.97;;;8.70;99.90;;;;;;5076052;28;20189;-48
2023/01/12 06:32:46;;;;;;;2.70;1.10;;;8.70;99.90;;;;;;5075607;28;20196;-47
2023/01/12 06:35:12;;;;;;;6.33;1.20;;;8.70;99.90;;;;;;5075729;28;20523;-48
2023/01/12 06:37:38;;;;;;;1.97;0.70;;;8.80;99.90;;;;;;5074967;28;20520;-48
2023/01/12 06:40:04;;;;;;;4.60;0.87;;;8.80;99.90;;;;;;5057737;28;20643;-48
2023/01/12 06:42:30;;;;;;;5.97;1.40;;;8.80;99.90;;;;;;5075547;28;20211;-48
2023/01/12 06:44:57;;;;;;;7.53;1.40;;;8.80;99.90;;;;;;5075755;28;20237;-49
2023/01/12 06:47:23;;;;;;;4.40;1.27;;;8.80;99.90;;;;;;5075695;28;20635;-48
2023/01/12 06:49:50;;;;;;;9.97;1.30;;;8.80;99.90;;;;;;5075401;28;20187;-48
2023/01/12 06:52:20;;;;;;;4.17;1.27;;;8.80;99.90;;;;;;5075294;28;20697;-48
2023/01/12 06:54:46;;;;;;;2.80;0.93;;;8.80;99.90;;;;;;5075462;28;20294;-48
2023/01/12 06:57:12;;;;;;;8.63;1.47;;;8.80;99.90;;;;;;5075439;28;20215;-47
2023/01/12 06:59:38;;;;;;;3.43;1.00;;;8.80;99.90;;;;;;5075409;28;20180;-47
2023/01/12 07:02:04;;;;;;;3.00;0.97;;;8.80;99.90;;;;;;5075324;28;20214;-47
2023/01/12 07:04:29;;;;;;;3.87;1.17;;;8.90;99.90;;;;;;5075157;28;20188;-47
2023/01/12 07:06:55;;;;;;;2.30;1.00;;;8.90;99.90;;;;;;5075116;28;20187;-48
2023/01/12 07:09:20;;;;;;;4.50;1.00;;;8.90;99.90;;;;;;5075319;28;20188;-48
2023/01/12 07:11:46;;;;;;;4.03;0.70;;;9.00;99.90;;;;;;5075455;28;20203;-48
2023/01/12 07:14:11;;;;;;;7.40;0.97;;;9.10;99.90;;;;;;5056037;22;20569;-43
2023/01/12 07:16:39;;;;;;;3.30;1.17;;;9.10;99.90;;;;;;5034946;28;20211;-44
2023/01/12 07:19:04;;;;;;;3.90;1.00;;;9.00;99.90;;;;;;5035166;28;20181;-47
2023/01/12 07:21:30;;;;;;;1.77;0.70;;;9.10;99.90;;;;;;5034874;28;20686;-44
2023/01/12 07:23:55;;;;;;;2.97;0.97;;;9.10;99.90;;;;;;5034879;28;20589;-45
2023/01/12 07:26:21;;;;;;;3.40;0.60;;;9.20;99.90;;;;;;5035290;28;20177;-44
2023/01/12 07:28:46;;;;;;;2.73;0.80;;;9.20;99.90;;;;;;5034689;28;20204;-44
2023/01/12 07:31:12;;;;;;;2.30;0.87;;;9.20;99.90;;;;;;5034824;28;20225;-47
2023/01/12 07:33:37;;;;;;;2.03;0.97;;;9.20;99.90;;;;;;5034559;28;20208;-46
2023/01/12 07:36:03;;;;;;;4.13;1.20;;;9.20;99.90;;;;;;5016800;28;20262;-45
2023/01/12 07:38:30;;;;;;;3.80;0.60;;;9.20;99.90;;;;;;5048136;28;20180;-46
2023/01/12 07:40:59;;;;;;;3.47;0.83;;;9.20;99.90;;;;;;5054430;28;20249;-46
2023/01/12 07:43:25;;;;;;;5.03;0.97;;;9.20;99.90;;;;;;5054641;28;20595;-45
2023/01/12 07:45:51;;;;;;;3.30;0.50;;;9.20;99.90;;;;;;5054562;28;20234;-45
2023/01/12 07:48:17;;;;;;;5.90;0.70;;;9.20;99.90;;;;;;5054316;28;20179;-44
2023/01/12 07:50:42;;;;;;;4.23;0.73;;;9.20;99.90;;;;;;5036186;28;20184;-44
2023/01/12 07:53:08;;;;;;;1.67;0.63;;;9.20;99.90;;;;;;5036498;28;20215;-45
2023/01/12 07:55:33;;;;;;;2.47;0.90;;;9.20;99.90;;;;;;5054114;28;20227;-44
2023/01/12 07:58:07;;;;;;;4.87;1.17;;;9.20;99.90;;;;;;5036511;28;20176;-45
2023/01/12 08:00:33;;;;;;;3.80;0.60;;;9.20;99.90;;;;;;5036254;28;20301;-45
2023/01/12 08:03:07;;;;;;;3.73;0.90;;;9.20;99.90;;;;;;5054201;28;20208;-45
2023/01/12 08:05:34;;;;;;;2.67;1.00;;;9.20;99.90;;;;;;5053995;28;20178;-44
2023/01/12 08:08:00;;;;;;;3.23;1.07;;;9.20;99.90;;;;;;5054104;28;20180;-45
2023/01/12 08:10:26;;;;;;;1.07;0.57;;;9.20;99.90;;;;;;5036067;28;20176;-43
2023/01/12 08:12:52;;;;;;;5.93;1.07;;;9.30;99.90;;;;;;5053594;28;20594;-47
2023/01/12 08:15:17;;;;;;;3.97;0.87;;;9.30;99.90;;;;;;5054037;28;20161;-46
2023/01/12 08:17:51;;;;;;;5.47;1.20;;;9.30;99.90;;;;;;5054071;28;20241;-44
2023/01/12 08:20:21;;;;;;;2.57;0.83;;;9.30;99.90;;;;;;5054036;28;20165;-47
2023/01/12 08:22:51;;;;;;;3.53;0.80;;;9.30;99.90;;;;;;5055239;28;20569;-45
2023/01/12 08:25:29;;;;;;;2.10;0.57;;;9.30;99.90;;;;;;5053975;28;20256;-45
2023/01/12 08:27:59;;;;;;;2.47;0.70;;;9.30;99.90;;;;;;5054173;28;20166;-45
2023/01/12 08:30:26;;;;;;;2.57;0.83;;;9.40;99.90;;;;;;5053855;28;20172;-46
2023/01/12 08:32:54;;;;;;;2.87;0.70;;;9.40;99.90;;;;;;5035576;28;20295;-46
2023/01/12 08:35:22;;;;;;;10.67;1.17;;;9.40;99.90;;;;;;5053775;28;20173;-47
2023/01/12 08:37:48;;;;;;;2.77;0.87;;;9.40;99.90;;;;;;5053398;28;20655;-46
2023/01/12 08:40:13;;;;;;;2.03;0.47;;;9.40;99.90;;;;;;5053843;28;20239;-47
2023/01/12 08:42:39;;;;;;;5.17;0.70;;;9.50;99.90;;;;;;5053709;28;20200;-46
2023/01/12 08:45:08;;;;;;;2.37;0.40;;;9.40;99.90;;;;;;5035642;28;20177;-46
2023/01/12 08:47:33;;;;;;;4.00;0.63;;;9.50;99.90;;;;;;5035590;28;20263;-46
2023/01/12 08:50:00;;;;;;;1.57;0.80;;;9.50;99.90;;;;;;5053445;28;20273;-45
2023/01/12 08:52:31;;;;;;;3.43;0.90;;;9.50;99.90;;;;;;5035330;28;20207;-46
2023/01/12 08:54:57;;;;;;;1.83;0.50;;;9.50;99.90;;;;;;5053509;28;20267;-46
2023/01/12 08:57:22;;;;;;;2.40;0.70;;;9.60;99.90;;;;;;5053504;28;20220;-46
2023/01/12 08:59:48;;;;;;;1.70;0.40;;;9.60;99.90;;;;;;5053238;28;20174;-46
2023/01/12 09:02:14;;;;;;;7.60;0.60;;;9.60;99.90;;;;;;5058097;28;20248;-48
2023/01/12 09:04:40;;;;;;;1.00;0.40;;;9.60;99.90;;;;;;5060404;28;20639;-48
2023/01/12 09:07:07;;;;;;;0.93;0.50;;;9.60;99.90;;;;;;5060023;28;20178;-47
2023/01/12 09:09:33;;;;;;;2.53;0.40;;;9.60;99.90;;;;;;5060172;28;20547;-49
2023/01/12 09:11:59;;;;;;;1.20;0.47;;;9.60;99.90;;;;;;5060126;28;20191;-47
2023/01/12 09:14:25;;;;;;;1.70;0.50;;;9.60;99.90;;;;;;5059682;28;20216;-49
2023/01/12 09:16:50;;;;;;;2.63;0.40;;;9.60;99.90;;;;;;5059906;28;20226;-48
2023/01/12 09:19:16;;;;;;;4.13;1.00;;;9.70;99.90;;;;;;5059705;28;20190;-48
2023/01/12 09:21:42;;;;;;;0.50;0.50;;;9.70;99.90;;;;;;5060205;28;20620;-49
2023/01/12 09:24:09;;;;;;;1.13;0.50;;;9.70;99.90;;;;;;5059670;28;20186;-49
2023/01/12 09:26:37;;;;;;;2.70;0.50;;;9.70;99.90;;;;;;5059662;28;20174;-50
2023/01/12 09:29:03;;;;;;;0.97;0.50;;;9.70;99.90;;;;;;5059874;28;20275;-47
2023/01/12 09:31:30;;;;;;;2.67;1.00;;;9.70;99.90;;;;;;5059810;28;20253;-49
2023/01/12 09:33:57;;;;;;;2.33;0.87;;;9.70;99.90;;;;;;5059743;28;20197;-49
2023/01/12 09:36:32;;;;;;;2.23;0.57;;;9.70;99.90;;;;;;5042179;28;20182;-48
2023/01/12 09:39:00;;;;;;;2.80;0.83;;;9.80;99.90;;;;;;5060290;28;20185;-47
2023/01/12 09:47:35;;;;;;;3.20;0.63;;;9.80;99.90;;;;;;5055217;28;20285;-48
2023/01/12 09:50:19;;;;;;;5.43;1.00;;;9.80;99.90;;;;;;5045067;28;20211;-47
2023/01/12 09:53:00;;;;;;;1.73;0.70;;;9.80;99.90;;;;;;5045510;28;20565;-49
2023/01/12 09:55:34;;;;;;;2.10;0.93;;;9.90;99.90;;;;;;5062179;28;20191;-49
2023/01/12 09:58:25;;;;;;;6.07;0.83;;;9.90;99.90;;;;;;5041702;28;20644;-47
2023/01/12 10:00:55;;;;;;;1.67;0.40;;;9.90;99.90;;;;;;5059912;28;20164;-48
2023/01/12 10:03:34;;;;;;;2.80;0.87;;;9.90;99.90;;;;;;5059398;28;20290;-49
2023/01/12 10:06:00;;;;;;;2.27;0.80;;;9.90;99.90;;;;;;5059644;28;20577;-49
2023/01/12 10:08:28;;;;;;;3.83;0.63;;;10.00;99.90;;;;;;5059605;28;20181;-49
2023/01/12 10:11:19;;;;;;;2.00;0.80;;;10.00;99.90;;;;;;5059365;28;20640;-48
2023/01/12 10:14:24;;;;;;;2.23;0.70;;;10.00;99.90;;;;;;5038747;28;20259;-50
2023/01/12 10:17:05;;;;;;;1.03;0.70;;;10.00;99.90;;;;;;5056062;28;20209;-46
2023/01/12 10:19:47;;;;;;;2.00;0.90;;;10.00;99.90;;;;;;5055984;28;20184;-47
2023/01/12 10:22:36;;;;;;;2.97;0.90;;;10.00;99.90;;;;;;5057267;28;20256;-46
2023/01/12 10:25:14;;;;;;;0.97;0.50;;;10.00;99.90;;;;;;5055936;28;20175;-46
2023/01/12 10:27:42;;;;;;;1.53;1.23;;;10.10;99.90;;;;;;5038062;28;20179;-44
2023/01/12 10:30:16;;;;;;;3.03;0.70;;;10.10;99.90;;;;;;5055865;28;20389;-44
2023/01/12 10:32:42;;;;;;;2.63;0.50;;;10.10;99.90;;;;;;5055570;28;20670;-46
2023/01/12 10:35:16;;;;;;;1.47;0.60;;;10.20;99.90;;;;;;5056367;28;20195;-47
2023/01/12 10:38:12;;;;;;;1.53;0.80;;;10.20;99.90;;;;;;5055893;28;20343;-51
2023/01/12 10:40:38;;;;;;;1.37;0.63;;;10.20;99.90;;;;;;5037817;28;20184;-48
2023/01/12 10:43:27;;;;;;;2.77;0.67;;;10.20;99.90;;;;;;5055771;28;20211;-51
2023/01/12 10:46:09;;;;;;;2.10;0.60;;;10.20;99.90;;;;;;5055801;28;20241;-48
2023/01/12 10:48:37;;;;;;;2.17;0.80;;;10.20;99.90;;;;;;5037706;28;20179;-46
2023/01/12 10:51:07;;;;;;;0.83;0.40;;;10.20;99.90;;;;;;5055425;28;20178;-49
2023/01/12 10:53:46;;;;;;;4.60;0.50;;;10.20;99.90;;;;;;5055651;28;20211;-50
2023/01/12 10:56:34;;;;;;;1.90;0.57;;;10.20;99.90;;;;;;5055468;28;20223;-49
2023/01/12 10:59:18;;;;;;;3.43;1.00;;;10.30;99.90;;;;;;5055394;28;20176;-48
2023/01/12 11:01:50;;;;;;;3.77;1.17;;;10.30;99.90;;;;;;5055508;28;20206;-49
2023/01/12 11:04:22;;;;;;;2.30;0.60;;;10.30;99.90;;;;;;5055555;28;20204;-49
2023/01/12 11:06:59;;;;;;;3.83;0.63;;;10.30;99.90;;;;;;5037225;28;20638;-48
2023/01/12 11:09:28;;;;;;;3.63;0.73;;;10.30;99.90;;;;;;5055475;28;20178;-50
2023/01/12 11:11:56;;;;;;;2.47;0.63;;;10.30;99.90;;;;;;5054972;28;20200;-51
2023/01/12 11:14:32;;;;;;;3.70;0.53;;;10.30;99.90;;;;;;5054892;28;20293;-50
2023/01/12 11:17:06;;;;;;;3.33;0.43;;;10.30;99.90;;;;;;5054995;28;20302;-49
2023/01/12 11:19:40;;;;;;;3.83;0.70;;;10.30;99.90;;;;;;5055246;28;20197;-50
2023/01/12 11:22:11;;;;;;;3.57;0.90;;;10.30;99.90;;;;;;5054941;28;20202;-49
2023/01/12 11:24:48;;;;;;;1.90;0.50;;;10.40;99.90;;;;;;5054799;28;20178;-48
2023/01/12 11:27:28;;;;;;;4.37;0.97;;;10.40;99.90;;;;;;5054740;28;20176;-50
2023/01/12 11:29:59;;;;;;;2.77;0.70;;;10.40;99.90;;;;;;5054940;28;20207;-48
2023/01/12 11:32:45;;;;;;;1.17;0.63;;;10.50;99.90;;;;;;5054804;28;20209;-50
2023/01/12 11:35:16;;;;;;;2.13;0.70;;;10.50;99.90;;;;;;5055003;28;20523;-47
2023/01/12 11:37:44;;;;;;;1.47;0.60;;;10.50;99.90;;;;;;5054932;28;20234;-49
2023/01/12 11:48:44;;;;;;;3.30;0.97;;;10.60;99.90;;;;;;5033076;28;20217;-46
2023/01/12 11:51:14;;;;;;;2.17;0.77;;;10.60;99.90;;;;;;5036511;28;20562;-43
2023/01/12 11:53:40;;;;;;;1.43;0.57;;;10.50;99.90;;;;;;5054684;28;20296;-45
2023/01/12 11:56:24;;;;;;;2.50;0.77;;;10.60;99.90;;;;;;5055127;28;20226;-45
2023/01/12 11:58:57;;;;;;;2.10;0.80;;;10.60;99.90;;;;;;5054592;28;20172;-46
2023/01/12 12:01:36;;;;;;;1.80;0.50;;;10.50;99.90;;;;;;5054537;28;20208;-46
2023/01/12 12:04:29;;;;;;;0.50;0.40;;;10.50;99.90;;;;;;5054286;28;20264;-44
2023/01/12 12:07:33;;;;;;;3.40;0.77;;;10.50;99.90;;;;;;5054494;28;20175;-44
2023/01/12 12:10:27;;;;;;;2.00;0.50;;;10.50;99.90;;;;;;5054156;28;20164;-51
2023/01/12 12:13:02;;;;;;;3.20;0.70;;;10.50;99.90;;;;;;5018667;28;20211;-49
2023/01/12 12:15:33;;;;;;;1.40;0.50;;;10.50;99.90;;;;;;5037434;28;20677;-50
2023/01/12 12:18:29;;;;;;;2.53;0.60;;;10.50;99.90;;;;;;5053849;28;20215;-51
2023/01/12 12:21:06;;;;;;;1.90;0.40;;;10.50;99.90;;;;;;5036003;28;20182;-50
2023/01/12 12:30:09;;;;;;;2.93;0.73;;;10.50;99.90;;;;;;5012713;28;20212;-51
2023/01/12 12:32:54;;;;;;;1.17;0.40;;;10.50;99.90;;;;;;5012342;28;20205;-50
2023/01/12 12:35:50;;;;;;;0.53;0.40;;;10.50;99.90;;;;;;5021575;28;20654;-49
2023/01/12 12:38:52;;;;;;;1.67;0.70;;;10.40;99.90;;;;;;5035099;28;20197;-50
2023/01/12 12:47:31;;;;;;;3.10;0.57;;;10.40;99.90;;;;;;5053496;28;20249;-48
2023/01/12 12:49:59;;;;;;;0.40;0.33;;;10.40;99.90;;;;;;5053648;28;20193;-49
2023/01/12 13:01:14;;;;;;;3.03;0.50;;;10.40;99.90;;;;;;5032041;28;20226;-51
2023/01/12 13:03:39;;;;;;;1.10;0.63;;;10.40;99.90;;;;;;5014102;28;20243;-49
2023/01/12 13:06:22;;;;;;;0.43;0.37;;;10.40;99.90;;;;;;5013849;28;20263;-50
2023/01/12 13:08:49;;;;;;;1.50;0.40;;;10.40;99.90;;;;;;5013580;28;20233;-50
2023/01/12 13:11:16;;;;;;;1.40;0.50;;;10.40;99.90;;;;;;5012229;28;20207;-51
2023/01/12 13:14:04;;;;;;;0.73;0.33;;;10.40;99.90;;;;;;5013441;28;20228;-51
2023/01/12 13:16:30;;;;;;;3.17;0.50;;;10.40;99.90;;;;;;5013756;28;20178;-49
2023/01/12 13:18:56;;;;;;;0.87;0.27;;;10.40;99.90;;;;;;5014608;28;20686;-50
2023/01/12 13:21:27;;;;;;;0.63;0.40;;;10.40;99.90;;;;;;5013865;28;20264;-49
2023/01/12 13:24:13;;;;;;;1.27;0.50;;;10.50;99.90;;;;;;5030629;22;20177;-46
2023/01/12 13:26:44;;;;;;;1.17;0.47;;;11.20;99.90;;;;;;5012531;28;20611;-45
2023/01/12 13:29:21;;;;;;;0.40;0.30;;;10.40;99.90;;;;;;5013519;28;20176;-46
2023/01/12 13:31:47;;;;;;;1.90;0.40;;;10.50;99.90;;;;;;5019692;28;20192;-43
2023/01/12 13:34:37;;;;;;;0.60;0.50;;;10.50;99.90;;;;;;5032851;28;20218;-46
2023/01/12 13:37:17;;;;;;;1.50;0.70;;;10.50;99.90;;;;;;5033249;28;20527;-45
2023/01/12 13:39:59;;;;;;;2.63;0.90;;;10.50;99.90;;;;;;5033228;28;20164;-46
2023/01/12 13:45:17;;;;;;;1.73;0.40;;;10.40;99.90;;;;;;5033197;28;20643;-46
2023/01/12 13:47:44;;;;;;;1.07;0.47;;;10.50;99.90;;;;;;5034172;28;20248;-45
2023/01/12 13:50:19;;;;;;;1.10;0.70;;;10.50;99.90;;;;;;5036648;28;20323;-46
2023/01/12 13:53:00;;;;;;;2.63;0.40;;;10.50;99.90;;;;;;5036459;28;20211;-45
2023/01/12 13:55:30;;;;;;;2.17;0.60;;;10.50;99.90;;;;;;5037124;28;20161;-45
2023/01/12 13:58:15;;;;;;;1.20;0.50;;;10.50;99.90;;;;;;5036863;28;20303;-47
2023/01/12 14:00:41;;;;;;;3.23;0.43;;;10.50;99.90;;;;;;5036903;28;20521;-45
2023/01/12 14:03:23;;;;;;;2.00;0.60;;;10.50;99.90;;;;;;5036379;28;20236;-46
2023/01/12 14:05:48;;;;;;;4.17;0.60;;;10.50;99.90;;;;;;5036940;28;20211;-44
2023/01/12 14:08:41;;;;;;;0.97;0.40;;;10.50;99.90;;;;;;5036344;28;20180;-45
2023/01/12 14:11:22;;;;;;;2.00;0.80;;;10.50;99.90;;;;;;5036246;28;20169;-45
2023/01/12 14:19:40;;;;;;;0.30;0.30;;;10.50;99.90;;;;;;5036202;28;20589;-47
2023/01/12 14:22:17;;;;;;;2.00;0.70;;;10.50;99.90;;;;;;5036154;28;20232;-45